Time;durP1;ratioP1;P1;durP2;ratioP2;P2;SDS_P1;SDS_P2;PMS_P1;PMS_P2;Temp;Humidity;BMP_temperature;BMP_pressure;BME280_temperature;BME280_humidity;BME280_pressure;Samples;Min_cycle;Max_cycle;Signal;HPM_P1;HPM_P2
2024/02/27 00:00:24;;;;;;;15.47;7.40;;;5.20;99.90;;;;;;4998718;28;20221;-61
2024/02/27 00:02:53;;;;;;;9.50;7.17;;;5.10;99.90;;;;;;5003493;28;20617;-60
2024/02/27 00:05:21;;;;;;;11.67;7.43;;;5.10;99.90;;;;;;4997843;28;20210;-61
2024/02/27 00:07:50;;;;;;;13.27;7.90;;;5.20;99.90;;;;;;5002616;28;20210;-61
2024/02/27 00:10:18;;;;;;;11.90;7.90;;;5.20;99.90;;;;;;5001630;28;20230;-60
2024/02/27 00:12:47;;;;;;;9.97;7.80;;;5.10;99.90;;;;;;4996533;28;20727;-61
2024/02/27 00:15:17;;;;;;;13.27;8.30;;;5.10;99.90;;;;;;5003384;28;20352;-61
2024/02/27 00:17:45;;;;;;;9.97;7.37;;;5.10;99.90;;;;;;5001012;28;20674;-60
2024/02/27 00:20:13;;;;;;;15.63;7.83;;;5.10;99.90;;;;;;4995146;28;20226;-61
2024/02/27 00:22:41;;;;;;;11.50;8.17;;;5.10;99.90;;;;;;4991302;28;20689;-61
2024/02/27 00:25:10;;;;;;;9.43;7.97;;;5.10;99.90;;;;;;4999754;28;20690;-61
2024/02/27 00:27:38;;;;;;;10.07;7.40;;;5.20;99.90;;;;;;4997646;28;20246;-61
2024/02/27 00:30:08;;;;;;;11.27;8.20;;;5.20;99.90;;;;;;5004607;28;20226;-61
2024/02/27 00:32:38;;;;;;;11.67;7.53;;;5.10;99.90;;;;;;5001648;28;20199;-60
2024/02/27 00:35:07;;;;;;;12.60;8.13;;;5.10;99.90;;;;;;4998652;28;20204;-61
2024/02/27 00:37:35;;;;;;;11.43;8.60;;;5.00;99.90;;;;;;5002252;28;21021;-60
2024/02/27 00:40:05;;;;;;;12.93;8.20;;;5.10;99.90;;;;;;4995752;28;21058;-60
2024/02/27 00:42:33;;;;;;;12.13;8.27;;;5.00;99.90;;;;;;4995474;28;20633;-61
2024/02/27 00:45:01;;;;;;;10.80;8.53;;;5.00;99.90;;;;;;4991687;28;20229;-61
2024/02/27 00:47:30;;;;;;;9.63;7.87;;;4.90;99.90;;;;;;4984361;28;20566;-61
2024/02/27 00:49:59;;;;;;;11.37;8.73;;;4.90;99.90;;;;;;4996286;28;20250;-61
2024/02/27 00:52:27;;;;;;;12.40;8.37;;;4.80;99.90;;;;;;4997318;28;20218;-61
2024/02/27 00:54:56;;;;;;;13.23;8.17;;;4.70;99.90;;;;;;4998624;28;20706;-61
2024/02/27 00:57:24;;;;;;;14.03;8.60;;;4.70;99.90;;;;;;5009818;28;20226;-60
2024/02/27 00:59:52;;;;;;;12.93;8.63;;;4.70;99.90;;;;;;5021927;28;20230;-61
2024/02/27 01:02:21;;;;;;;14.03;8.70;;;4.60;99.90;;;;;;4998977;28;20187;-61
2024/02/27 01:04:49;;;;;;;14.50;8.70;;;4.50;99.90;;;;;;4996355;28;20868;-60
2024/02/27 01:07:19;;;;;;;15.63;9.77;;;4.50;99.90;;;;;;4990711;28;20223;-60
2024/02/27 01:09:47;;;;;;;15.50;9.43;;;4.40;99.90;;;;;;4994971;28;20230;-61
2024/02/27 01:12:18;;;;;;;15.30;9.83;;;4.40;99.90;;;;;;5000877;28;20222;-60
2024/02/27 01:14:46;;;;;;;17.37;9.27;;;4.30;99.90;;;;;;4998638;28;20218;-60
2024/02/27 01:17:15;;;;;;;16.23;9.73;;;4.30;99.90;;;;;;4999054;28;20197;-62
2024/02/27 01:19:43;;;;;;;14.07;9.37;;;4.20;99.90;;;;;;4997869;28;20221;-61
2024/02/27 01:22:12;;;;;;;14.33;9.27;;;4.20;99.90;;;;;;4996686;28;20277;-60
2024/02/27 01:24:42;;;;;;;16.07;9.50;;;4.20;99.90;;;;;;4995740;28;20305;-61
2024/02/27 01:27:10;;;;;;;16.40;9.53;;;4.20;99.90;;;;;;4992528;28;20304;-61
2024/02/27 01:29:38;;;;;;;14.37;9.47;;;4.10;99.90;;;;;;4989439;28;20241;-61
2024/02/27 01:32:08;;;;;;;15.67;10.30;;;4.10;99.90;;;;;;4986176;28;20536;-62
2024/02/27 01:34:36;;;;;;;17.63;9.63;;;4.10;99.90;;;;;;4996028;28;20215;-60
2024/02/27 01:37:05;;;;;;;14.30;10.23;;;4.20;99.90;;;;;;4998721;28;20225;-61
2024/02/27 01:39:33;;;;;;;16.40;9.93;;;4.20;99.90;;;;;;4994592;28;20211;-61
2024/02/27 01:42:03;;;;;;;15.47;9.93;;;4.20;99.90;;;;;;4998923;28;20234;-61
2024/02/27 01:44:31;;;;;;;17.20;10.10;;;4.10;99.90;;;;;;4998233;28;20241;-61
2024/02/27 01:47:01;;;;;;;16.27;9.83;;;4.10;99.90;;;;;;5010183;28;20198;-61
2024/02/27 01:49:33;;;;;;;18.30;10.57;;;4.10;99.90;;;;;;4994301;28;20222;-61
2024/02/27 01:52:01;;;;;;;17.67;10.00;;;4.10;99.90;;;;;;5002202;28;20688;-61
2024/02/27 01:54:30;;;;;;;21.13;10.93;;;4.00;99.90;;;;;;4998928;28;20434;-60
2024/02/27 01:56:58;;;;;;;19.17;10.57;;;4.00;99.90;;;;;;5001198;28;20313;-61
2024/02/27 01:59:30;;;;;;;17.70;11.00;;;3.90;99.90;;;;;;4993855;28;20194;-61
2024/02/27 02:02:00;;;;;;;17.40;10.37;;;3.90;99.90;;;;;;4997713;28;20217;-61
2024/02/27 02:04:28;;;;;;;17.87;10.90;;;3.80;99.90;;;;;;5002630;28;20218;-61
2024/02/27 02:06:57;;;;;;;17.93;11.40;;;3.80;99.90;;;;;;4998845;28;20233;-61
2024/02/27 02:09:25;;;;;;;19.73;11.47;;;3.80;99.90;;;;;;4990921;28;20202;-61
2024/02/27 02:11:54;;;;;;;18.77;11.10;;;3.80;99.90;;;;;;4995305;28;20237;-61
2024/02/27 02:14:22;;;;;;;20.23;11.63;;;3.70;99.90;;;;;;4999688;28;20198;-60
2024/02/27 02:16:52;;;;;;;20.63;12.23;;;3.70;99.90;;;;;;4996458;28;20205;-61
2024/02/27 02:19:21;;;;;;;18.23;11.30;;;3.60;99.90;;;;;;4999841;28;20225;-61
2024/02/27 02:21:51;;;;;;;22.87;12.37;;;3.60;99.90;;;;;;4991386;28;20342;-61
2024/02/27 02:24:20;;;;;;;22.37;12.00;;;3.60;99.90;;;;;;5003831;28;20221;-61
2024/02/27 02:26:48;;;;;;;20.30;11.37;;;3.50;99.90;;;;;;5015626;28;20218;-60
2024/02/27 02:29:16;;;;;;;22.17;11.80;;;3.50;99.90;;;;;;5017906;28;20209;-61
2024/02/27 02:31:45;;;;;;;19.20;12.23;;;3.50;99.90;;;;;;5017705;28;20229;-61
2024/02/27 02:34:13;;;;;;;21.73;12.50;;;3.40;99.90;;;;;;4999415;28;20225;-61
2024/02/27 02:36:42;;;;;;;23.53;13.10;;;3.30;99.90;;;;;;4994491;28;20613;-61
2024/02/27 02:39:12;;;;;;;21.33;12.93;;;3.30;99.90;;;;;;4995610;28;20236;-61
2024/02/27 02:41:40;;;;;;;22.33;13.03;;;3.30;99.90;;;;;;4996675;28;20225;-60
2024/02/27 02:44:08;;;;;;;20.50;12.23;;;3.20;99.90;;;;;;4999701;28;20199;-61
2024/02/27 02:46:38;;;;;;;20.80;12.73;;;3.20;99.90;;;;;;5001322;28;20218;-61
2024/02/27 02:49:07;;;;;;;23.60;12.67;;;3.20;99.90;;;;;;5003052;28;20318;-61
2024/02/27 02:51:35;;;;;;;22.07;12.10;;;3.10;99.90;;;;;;5004564;28;20638;-61
2024/02/27 02:54:04;;;;;;;20.73;12.10;;;3.10;99.90;;;;;;4997655;28;20219;-61
2024/02/27 02:56:33;;;;;;;24.43;13.27;;;3.10;99.90;;;;;;4999626;28;20308;-61
2024/02/27 02:59:02;;;;;;;21.93;12.40;;;3.10;99.90;;;;;;4995651;28;20704;-62
2024/02/27 03:01:30;;;;;;;26.73;13.13;;;3.10;99.90;;;;;;4996746;28;20301;-61
2024/02/27 03:03:58;;;;;;;25.00;13.73;;;3.10;99.90;;;;;;4997819;28;20223;-61
2024/02/27 03:06:27;;;;;;;25.23;13.50;;;3.10;99.90;;;;;;4993635;28;20755;-60
2024/02/27 03:08:55;;;;;;;27.57;13.73;;;3.20;99.90;;;;;;4993380;28;20253;-61
2024/02/27 03:11:24;;;;;;;22.93;12.57;;;3.20;99.90;;;;;;4987892;28;20199;-61
2024/02/27 03:13:53;;;;;;;22.97;13.20;;;3.20;99.90;;;;;;4993163;28;20199;-60
2024/02/27 03:16:21;;;;;;;23.03;13.17;;;3.20;99.90;;;;;;4992322;28;20222;-61
2024/02/27 03:18:50;;;;;;;25.03;14.63;;;3.20;99.90;;;;;;4989333;28;20322;-61
2024/02/27 03:21:18;;;;;;;26.20;14.07;;;3.30;99.90;;;;;;5003477;28;20213;-61
2024/02/27 03:23:46;;;;;;;22.40;13.57;;;3.30;99.90;;;;;;5009946;28;20218;-61
2024/02/27 03:26:16;;;;;;;25.37;13.63;;;3.30;99.90;;;;;;4992726;28;20219;-60
2024/02/27 03:28:45;;;;;;;26.90;14.30;;;3.30;99.90;;;;;;5015586;28;20245;-61
2024/02/27 03:31:14;;;;;;;26.47;13.70;;;3.30;99.90;;;;;;5015770;28;20617;-61
2024/02/27 03:33:42;;;;;;;26.50;15.07;;;3.30;99.90;;;;;;5011770;28;20217;-61
2024/02/27 03:36:11;;;;;;;23.63;13.57;;;3.30;99.90;;;;;;5014611;28;20247;-61
2024/02/27 03:38:40;;;;;;;21.57;13.27;;;3.30;99.90;;;;;;5020301;28;20225;-61
2024/02/27 03:41:12;;;;;;;26.43;13.83;;;3.30;99.90;;;;;;5021778;28;20197;-61
2024/02/27 03:43:41;;;;;;;22.67;13.80;;;3.30;99.90;;;;;;5014693;28;20222;-60
2024/02/27 03:46:10;;;;;;;25.40;13.67;;;3.30;99.90;;;;;;5013039;28;20226;-61
2024/02/27 03:48:39;;;;;;;22.13;13.00;;;3.40;99.90;;;;;;5013755;28;20230;-60
2024/02/27 03:51:08;;;;;;;24.40;13.47;;;3.40;99.90;;;;;;5017373;28;20312;-60
2024/02/27 03:53:36;;;;;;;26.57;13.97;;;3.30;99.90;;;;;;5019287;28;20611;-60
2024/02/27 03:56:06;;;;;;;20.70;12.57;;;3.30;99.90;;;;;;5016914;28;20224;-60
2024/02/27 03:58:36;;;;;;;27.97;13.97;;;3.20;99.90;;;;;;5011467;28;20248;-61
2024/02/27 04:01:04;;;;;;;25.63;13.63;;;3.10;99.90;;;;;;4992750;28;20211;-61
2024/02/27 04:03:33;;;;;;;23.40;13.53;;;3.10;99.90;;;;;;4998923;28;20747;-61
2024/02/27 04:06:03;;;;;;;21.63;13.40;;;3.10;99.90;;;;;;5003134;28;20233;-61
2024/02/27 04:08:31;;;;;;;22.17;13.07;;;3.00;99.90;;;;;;5007624;28;20210;-61
2024/02/27 04:10:59;;;;;;;25.13;14.27;;;2.90;99.90;;;;;;5001567;28;20202;-61
2024/02/27 04:13:29;;;;;;;25.90;13.30;;;2.90;99.90;;;;;;4995096;28;20221;-61
2024/02/27 04:16:00;;;;;;;26.03;14.27;;;2.90;99.90;;;;;;5000375;28;20223;-61
2024/02/27 04:18:28;;;;;;;24.00;14.10;;;2.90;99.90;;;;;;5000387;28;20207;-61
2024/02/27 04:20:57;;;;;;;26.30;14.40;;;2.90;99.90;;;;;;5002507;28;20248;-61
2024/02/27 04:23:26;;;;;;;28.53;14.07;;;2.90;99.90;;;;;;5020668;28;20198;-61
2024/02/27 04:25:55;;;;;;;25.77;14.23;;;2.90;99.90;;;;;;5018953;28;20529;-61
2024/02/27 04:28:23;;;;;;;26.47;14.40;;;2.90;99.90;;;;;;5022185;28;20226;-61
2024/02/27 04:30:51;;;;;;;27.10;13.43;;;2.80;99.90;;;;;;5017147;28;20214;-62
2024/02/27 04:33:20;;;;;;;28.00;13.83;;;2.90;99.90;;;;;;5019638;28;20245;-60
2024/02/27 04:35:48;;;;;;;24.73;14.23;;;2.90;99.90;;;;;;4999938;28;20228;-61
2024/02/27 04:38:16;;;;;;;27.87;14.47;;;2.80;99.90;;;;;;5025941;28;20206;-62
2024/02/27 04:40:46;;;;;;;22.97;12.97;;;2.80;99.90;;;;;;5018213;28;20213;-61
2024/02/27 04:43:14;;;;;;;25.60;13.73;;;2.80;99.90;;;;;;5014640;28;20218;-62
2024/02/27 04:45:43;;;;;;;24.47;13.53;;;2.80;99.90;;;;;;5017914;28;20225;-61
2024/02/27 04:48:11;;;;;;;22.67;13.03;;;2.80;99.90;;;;;;5024304;28;20232;-60
2024/02/27 04:50:39;;;;;;;27.00;13.60;;;2.90;99.90;;;;;;5015048;28;20233;-61
2024/02/27 04:53:08;;;;;;;25.17;13.87;;;2.90;99.90;;;;;;5021375;28;20216;-61
2024/02/27 04:55:36;;;;;;;28.13;14.03;;;2.90;99.90;;;;;;5023191;28;20243;-62
2024/02/27 04:58:05;;;;;;;26.20;13.17;;;2.90;99.90;;;;;;5025317;28;20222;-61
2024/02/27 05:00:34;;;;;;;25.00;13.43;;;2.90;99.90;;;;;;5010225;28;20217;-61
2024/02/27 05:03:02;;;;;;;22.17;12.90;;;2.90;99.90;;;;;;5012915;28;20352;-61
2024/02/27 05:05:30;;;;;;;25.80;13.37;;;3.00;99.90;;;;;;5014621;28;20194;-61
2024/02/27 05:07:59;;;;;;;23.83;12.70;;;3.00;99.90;;;;;;5018762;28;20242;-61
2024/02/27 05:10:27;;;;;;;26.50;12.83;;;3.00;99.90;;;;;;5016920;28;20217;-60
2024/02/27 05:12:57;;;;;;;23.70;12.87;;;3.00;99.90;;;;;;5022655;28;20240;-60
2024/02/27 05:15:26;;;;;;;23.97;13.20;;;3.00;99.90;;;;;;5012853;28;20652;-60
2024/02/27 05:17:55;;;;;;;24.30;12.97;;;3.00;99.90;;;;;;5013444;28;20221;-60
2024/02/27 05:20:24;;;;;;;22.83;12.67;;;3.10;99.90;;;;;;5016135;28;20190;-61
2024/02/27 05:22:52;;;;;;;24.87;12.83;;;3.00;99.90;;;;;;5002355;28;20196;-61
2024/02/27 05:25:21;;;;;;;24.80;13.10;;;3.00;99.90;;;;;;4996426;28;20219;-60
2024/02/27 05:27:49;;;;;;;26.20;12.47;;;3.10;99.90;;;;;;5001377;28;20222;-60
2024/02/27 05:30:17;;;;;;;23.37;12.43;;;3.00;99.90;;;;;;4993473;28;20233;-60
2024/02/27 05:32:47;;;;;;;25.83;13.43;;;3.10;99.90;;;;;;4994506;28;20226;-61
2024/02/27 05:35:16;;;;;;;23.57;12.83;;;3.10;99.90;;;;;;4988817;28;20238;-61
2024/02/27 05:37:44;;;;;;;24.47;12.77;;;3.10;99.90;;;;;;4994779;28;20230;-61
2024/02/27 05:40:13;;;;;;;26.97;13.57;;;3.10;99.90;;;;;;5003946;28;20581;-61
2024/02/27 05:42:42;;;;;;;23.33;12.73;;;3.20;99.90;;;;;;4999738;28;20221;-61
2024/02/27 05:45:10;;;;;;;22.97;12.30;;;3.20;99.90;;;;;;5002601;28;20248;-62
2024/02/27 05:47:39;;;;;;;24.27;13.07;;;3.30;99.90;;;;;;4995690;28;20303;-61
2024/02/27 05:50:09;;;;;;;19.97;11.77;;;3.30;99.90;;;;;;4991064;28;20230;-62
2024/02/27 05:52:38;;;;;;;23.70;12.67;;;3.40;99.90;;;;;;4990707;28;20682;-60
2024/02/27 05:55:07;;;;;;;26.50;12.83;;;3.40;99.90;;;;;;4989569;28;20677;-61
2024/02/27 05:57:35;;;;;;;20.17;11.63;;;3.40;99.90;;;;;;4995759;28;20222;-61
2024/02/27 06:00:04;;;;;;;22.10;12.60;;;3.40;99.90;;;;;;4992639;28;20219;-61
2024/02/27 06:02:32;;;;;;;23.70;12.07;;;3.30;99.90;;;;;;5002561;28;20535;-61
2024/02/27 06:05:01;;;;;;;24.57;12.47;;;3.30;99.90;;;;;;4994366;28;20202;-62
2024/02/27 06:07:30;;;;;;;25.33;12.17;;;3.30;99.90;;;;;;4999509;28;20709;-61
2024/02/27 06:09:59;;;;;;;19.77;10.97;;;3.30;99.90;;;;;;4992024;28;20689;-61
2024/02/27 06:12:27;;;;;;;21.67;11.63;;;3.30;99.90;;;;;;5002696;28;20230;-61
2024/02/27 06:14:55;;;;;;;21.90;12.17;;;3.30;99.90;;;;;;4994770;28;20230;-61
2024/02/27 06:17:23;;;;;;;21.77;11.33;;;3.30;99.90;;;;;;4998866;28;20195;-61
2024/02/27 06:19:55;;;;;;;20.80;11.83;;;3.30;99.90;;;;;;4994530;28;20277;-61
2024/02/27 06:22:23;;;;;;;18.63;10.90;;;3.30;99.90;;;;;;4996368;28;20718;-60
2024/02/27 06:24:53;;;;;;;18.30;10.73;;;3.20;99.90;;;;;;4991968;28;20610;-61
2024/02/27 06:27:22;;;;;;;21.83;10.90;;;3.20;99.90;;;;;;4994754;28;20236;-61
2024/02/27 06:29:50;;;;;;;21.30;11.50;;;3.20;99.90;;;;;;4996845;28;20232;-61
2024/02/27 06:32:18;;;;;;;21.57;11.07;;;3.10;99.90;;;;;;4996109;28;20198;-61
2024/02/27 06:34:47;;;;;;;23.90;12.17;;;3.10;99.90;;;;;;5018146;28;20275;-61
2024/02/27 06:37:18;;;;;;;17.60;11.03;;;3.00;99.90;;;;;;4995770;28;20228;-61
2024/02/27 06:39:47;;;;;;;20.47;11.67;;;3.00;99.90;;;;;;4994822;28;20301;-61
2024/02/27 06:42:19;;;;;;;18.80;11.50;;;3.00;99.90;;;;;;4997012;28;20225;-60
2024/02/27 06:44:47;;;;;;;21.03;11.87;;;2.90;99.90;;;;;;4985483;28;20305;-61
2024/02/27 06:47:17;;;;;;;20.00;11.53;;;2.90;99.90;;;;;;4995072;28;20198;-61
2024/02/27 06:49:46;;;;;;;22.63;12.83;;;2.80;99.90;;;;;;5003620;28;20676;-61
2024/02/27 06:52:14;;;;;;;21.80;12.13;;;2.80;99.90;;;;;;4996657;28;20301;-61
2024/02/27 06:54:43;;;;;;;24.10;13.10;;;2.80;99.90;;;;;;4993394;28;20221;-61
2024/02/27 06:57:11;;;;;;;22.30;12.40;;;2.80;99.90;;;;;;4993592;28;20222;-61
2024/02/27 06:59:41;;;;;;;25.63;12.33;;;2.80;99.90;;;;;;4995323;28;20253;-61
2024/02/27 07:02:09;;;;;;;29.00;12.63;;;2.80;99.90;;;;;;5000275;28;20191;-61
2024/02/27 07:04:37;;;;;;;22.70;12.23;;;2.70;99.90;;;;;;4999443;28;20218;-61
2024/02/27 07:07:05;;;;;;;24.03;12.30;;;2.70;99.90;;;;;;5003969;28;20631;-61
2024/02/27 07:09:34;;;;;;;29.53;12.97;;;2.70;99.90;;;;;;5004432;28;20285;-61
2024/02/27 07:12:02;;;;;;;24.07;11.50;;;2.70;99.90;;;;;;5008950;28;20225;-61
2024/02/27 07:14:33;;;;;;;20.57;11.90;;;2.70;99.90;;;;;;4992722;28;20194;-61
2024/02/27 07:17:02;;;;;;;24.43;12.13;;;2.70;99.90;;;;;;4988182;28;20253;-62
2024/02/27 07:19:31;;;;;;;28.87;13.40;;;2.70;99.90;;;;;;4993226;28;20214;-61
2024/02/27 07:21:59;;;;;;;29.33;13.67;;;2.80;99.90;;;;;;4993792;28;20229;-61
2024/02/27 07:24:27;;;;;;;26.80;12.73;;;2.90;99.90;;;;;;4989717;28;20229;-61
2024/02/27 07:26:55;;;;;;;23.50;13.57;;;2.90;99.90;;;;;;4993576;28;20317;-61
2024/02/27 07:29:23;;;;;;;25.77;13.23;;;3.00;99.90;;;;;;4994218;28;20198;-61
2024/02/27 07:31:53;;;;;;;30.60;14.07;;;3.10;99.90;;;;;;5000361;28;20225;-61
2024/02/27 07:34:23;;;;;;;28.97;13.97;;;3.20;99.90;;;;;;4997514;28;20729;-61
2024/02/27 07:36:51;;;;;;;25.67;14.43;;;3.30;99.90;;;;;;5000628;28;20222;-61
2024/02/27 07:39:20;;;;;;;29.03;14.33;;;3.60;99.90;;;;;;5002956;28;20226;-61
2024/02/27 07:41:48;;;;;;;23.30;13.47;;;3.90;99.90;;;;;;4998103;28;20228;-61
2024/02/27 07:44:16;;;;;;;27.70;13.77;;;4.10;99.90;;;;;;4999739;28;20246;-61
2024/02/27 07:46:45;;;;;;;25.50;12.80;;;4.40;99.90;;;;;;5001150;28;20225;-61
2024/02/27 07:49:13;;;;;;;20.47;12.70;;;4.60;99.90;;;;;;5006468;28;20226;-62
2024/02/27 07:51:42;;;;;;;24.03;12.93;;;4.70;99.90;;;;;;4996088;28;20226;-61
2024/02/27 07:54:10;;;;;;;20.13;11.97;;;4.80;99.90;;;;;;4997004;28;20218;-61
2024/02/27 07:56:39;;;;;;;16.57;11.17;;;4.90;99.90;;;;;;5005358;28;20252;-61
2024/02/27 07:59:07;;;;;;;23.93;11.70;;;5.00;99.90;;;;;;5003204;28;20209;-61
2024/02/27 08:01:35;;;;;;;19.20;11.40;;;5.30;99.90;;;;;;4995227;28;20218;-61
2024/02/27 08:04:05;;;;;;;19.60;11.93;;;5.40;99.90;;;;;;4998024;28;20249;-61
2024/02/27 08:06:33;;;;;;;19.10;11.33;;;5.60;99.90;;;;;;5000452;28;20214;-62
2024/02/27 08:09:03;;;;;;;15.43;10.57;;;5.80;99.90;;;;;;5004496;28;20684;-61
2024/02/27 08:11:32;;;;;;;14.83;9.87;;;6.00;99.90;;;;;;4999331;28;20222;-62
2024/02/27 08:14:01;;;;;;;14.80;9.53;;;6.20;99.90;;;;;;5000151;28;20202;-61
2024/02/27 08:16:29;;;;;;;20.20;9.77;;;6.30;99.90;;;;;;4992697;28;20751;-61
2024/02/27 08:18:58;;;;;;;14.73;9.63;;;6.40;99.90;;;;;;4999360;28;20221;-61
2024/02/27 08:21:27;;;;;;;18.30;9.50;;;6.30;99.90;;;;;;5001586;28;20223;-61
2024/02/27 08:23:55;;;;;;;15.60;9.93;;;6.10;99.90;;;;;;4992970;28;20222;-61
2024/02/27 08:26:25;;;;;;;17.67;10.83;;;6.00;99.90;;;;;;4998850;28;20218;-61
2024/02/27 08:28:54;;;;;;;15.73;10.00;;;6.10;99.90;;;;;;4999146;28;20202;-61
2024/02/27 08:31:23;;;;;;;17.50;10.90;;;6.30;99.90;;;;;;4997137;28;20222;-62
2024/02/27 08:33:53;;;;;;;19.00;10.37;;;6.50;99.90;;;;;;5001714;28;20756;-61
2024/02/27 08:36:24;;;;;;;14.07;10.13;;;6.70;99.90;;;;;;4996366;28;20238;-61
2024/02/27 08:38:53;;;;;;;15.00;9.97;;;6.80;99.90;;;;;;4997545;28;20227;-62
2024/02/27 08:41:21;;;;;;;15.00;9.37;;;6.70;99.90;;;;;;5004055;28;20194;-61
2024/02/27 08:43:51;;;;;;;15.23;9.83;;;6.70;99.90;;;;;;4998917;28;20649;-61
2024/02/27 08:46:20;;;;;;;14.93;10.47;;;6.70;99.90;;;;;;4993253;28;20214;-61
2024/02/27 08:48:49;;;;;;;14.13;10.47;;;6.70;99.90;;;;;;4999253;28;20686;-61
2024/02/27 08:51:18;;;;;;;16.87;10.80;;;6.70;99.90;;;;;;5001728;28;20318;-61
2024/02/27 08:53:46;;;;;;;16.27;10.63;;;7.00;99.90;;;;;;4998472;28;20219;-61
2024/02/27 08:56:14;;;;;;;15.23;10.47;;;7.40;99.90;;;;;;4998132;28;20222;-62
2024/02/27 08:58:43;;;;;;;13.40;9.83;;;7.60;99.90;;;;;;5000262;28;20218;-61
2024/02/27 09:01:13;;;;;;;15.70;9.97;;;7.70;99.90;;;;;;5001778;28;20214;-61
2024/02/27 09:03:42;;;;;;;15.93;10.63;;;7.80;99.90;;;;;;4994636;28;20554;-61
2024/02/27 09:06:11;;;;;;;18.33;10.33;;;8.10;99.90;;;;;;4998724;28;20302;-61
2024/02/27 09:08:41;;;;;;;14.77;10.57;;;7.90;99.90;;;;;;4997604;28;20236;-61
2024/02/27 09:11:09;;;;;;;16.67;10.80;;;8.00;99.90;;;;;;5002733;28;20238;-61
2024/02/27 09:13:37;;;;;;;19.03;10.70;;;8.10;99.90;;;;;;4999591;28;20242;-61
2024/02/27 09:16:06;;;;;;;16.33;10.23;;;8.10;99.90;;;;;;4995930;28;20260;-61
2024/02/27 09:18:38;;;;;;;14.30;10.63;;;8.00;99.90;;;;;;4995870;28;20220;-61
2024/02/27 09:21:07;;;;;;;19.30;11.03;;;8.20;99.90;;;;;;4991719;28;20245;-62
2024/02/27 09:23:36;;;;;;;18.43;11.40;;;8.40;99.90;;;;;;5002884;28;20248;-61
2024/02/27 09:26:04;;;;;;;17.37;11.17;;;8.50;99.90;;;;;;4996000;28;20187;-61
2024/02/27 09:28:33;;;;;;;14.40;10.27;;;8.70;99.90;;;;;;5001549;28;20231;-61
2024/02/27 09:31:04;;;;;;;17.73;11.30;;;8.90;99.90;;;;;;5004939;28;20784;-61
2024/02/27 09:33:34;;;;;;;16.97;11.37;;;8.90;99.90;;;;;;5000056;28;20561;-61
2024/02/27 09:36:03;;;;;;;14.93;10.00;;;9.10;99.90;;;;;;4997463;28;20398;-62
2024/02/27 09:38:31;;;;;;;14.23;10.07;;;9.10;99.90;;;;;;4997321;28;20226;-61
2024/02/27 09:41:01;;;;;;;15.73;10.87;;;9.30;99.90;;;;;;4999365;28;20194;-62
2024/02/27 09:43:32;;;;;;;14.37;10.23;;;9.50;99.90;;;;;;4997545;28;20222;-62
2024/02/27 09:46:04;;;;;;;17.83;10.33;;;9.70;99.90;;;;;;4998929;28;20218;-61
2024/02/27 09:48:41;;;;;;;14.43;10.13;;;9.50;99.90;;;;;;4997868;28;20218;-62
2024/02/27 09:51:12;;;;;;;13.40;9.97;;;9.40;99.90;;;;;;4993440;28;20226;-61
2024/02/27 09:53:42;;;;;;;16.30;10.57;;;9.60;99.90;;;;;;5003346;28;20240;-62
2024/02/27 09:56:14;;;;;;;14.13;9.97;;;9.80;99.90;;;;;;4994634;28;20211;-61
2024/02/27 09:58:43;;;;;;;15.33;9.90;;;10.10;99.90;;;;;;4996902;28;20218;-61
2024/02/27 10:01:13;;;;;;;12.53;9.40;;;10.40;99.90;;;;;;5000399;28;20225;-62
2024/02/27 10:03:45;;;;;;;11.53;9.47;;;10.60;99.90;;;;;;4989404;28;20274;-61
2024/02/27 10:06:16;;;;;;;13.93;10.23;;;10.70;99.90;;;;;;4988877;28;20301;-61
2024/02/27 10:08:53;;;;;;;14.77;9.97;;;10.70;99.90;;;;;;4992608;28;20226;-61
2024/02/27 10:11:23;;;;;;;15.00;9.30;;;11.00;99.90;;;;;;4995395;28;20201;-61
2024/02/27 10:13:51;;;;;;;12.23;8.97;;;10.80;99.90;;;;;;5006582;28;20642;-61
2024/02/27 10:16:22;;;;;;;10.87;8.87;;;11.10;99.90;;;;;;4996210;28;20225;-61
2024/02/27 10:18:50;;;;;;;13.60;9.67;;;11.20;99.90;;;;;;5005216;28;20265;-61
2024/02/27 10:21:20;;;;;;;13.50;9.10;;;11.30;99.90;;;;;;4997689;28;20693;-61
2024/02/27 10:23:49;;;;;;;12.17;9.10;;;11.60;99.90;;;;;;5004067;28;20711;-61
2024/02/27 10:26:17;;;;;;;13.27;8.60;;;11.90;99.90;;;;;;4998565;28;20209;-61
2024/02/27 10:28:49;;;;;;;11.33;8.17;;;11.90;99.90;;;;;;5018161;28;20224;-61
2024/02/27 10:31:18;;;;;;;10.13;8.60;;;12.00;99.90;;;;;;5021894;28;20221;-61
2024/02/27 10:33:47;;;;;;;10.07;7.93;;;12.10;99.90;;;;;;5018076;28;20577;-61
2024/02/27 10:36:15;;;;;;;9.87;8.30;;;12.30;99.90;;;;;;5014113;28;20225;-61
2024/02/27 10:38:45;;;;;;;13.77;8.63;;;12.50;99.90;;;;;;5021013;28;20720;-61
2024/02/27 10:41:14;;;;;;;10.57;8.07;;;12.60;99.90;;;;;;5009798;28;20202;-61
2024/02/27 10:43:44;;;;;;;9.53;8.20;;;12.80;99.90;;;;;;5011002;28;20214;-62
2024/02/27 10:46:12;;;;;;;11.13;8.37;;;13.10;99.90;;;;;;5005056;28;20622;-61
2024/02/27 10:48:43;;;;;;;9.70;8.50;;;13.00;99.90;;;;;;5013113;28;20214;-62
2024/02/27 10:51:13;;;;;;;10.13;8.47;;;12.90;99.90;;;;;;5015597;28;20236;-61
2024/02/27 10:53:46;;;;;;;10.00;7.90;;;13.10;99.90;;;;;;5020354;28;20236;-61
2024/02/27 10:56:15;;;;;;;12.80;8.67;;;13.20;99.90;;;;;;5022361;28;20221;-61
2024/02/27 10:58:46;;;;;;;10.03;8.50;;;13.40;99.90;;;;;;4991540;28;20232;-61
2024/02/27 11:01:15;;;;;;;10.60;8.50;;;13.50;99.90;;;;;;4978129;28;20622;-62
2024/02/27 11:03:45;;;;;;;10.97;8.70;;;13.70;99.90;;;;;;5007331;28;20225;-61
2024/02/27 11:06:18;;;;;;;9.63;8.20;;;13.70;99.90;;;;;;5024200;28;20213;-59
2024/02/27 11:08:52;;;;;;;11.03;8.50;;;13.60;99.90;;;;;;5005611;28;20224;-61
2024/02/27 11:11:20;;;;;;;12.77;8.20;;;13.30;99.90;;;;;;5019809;28;20200;-59
2024/02/27 11:13:51;;;;;;;12.07;8.03;;;13.50;99.90;;;;;;5018575;28;20290;-60
2024/02/27 11:16:22;;;;;;;9.87;8.30;;;13.20;99.90;;;;;;5021542;28;20254;-60
2024/02/27 11:18:56;;;;;;;11.37;8.37;;;12.80;99.90;;;;;;5026978;28;20221;-60
2024/02/27 11:21:28;;;;;;;12.57;9.30;;;13.10;99.90;;;;;;5023961;28;20278;-60
2024/02/27 11:23:59;;;;;;;10.70;8.43;;;13.50;99.90;;;;;;5022313;28;20282;-61
2024/02/27 11:26:28;;;;;;;9.33;8.27;;;13.50;99.90;;;;;;5021111;28;20556;-60
2024/02/27 11:28:57;;;;;;;10.00;8.37;;;13.30;99.90;;;;;;5021621;28;20198;-60
2024/02/27 11:31:27;;;;;;;9.93;8.47;;;13.10;99.90;;;;;;5017688;28;20225;-61
2024/02/27 11:33:58;;;;;;;11.43;8.63;;;13.00;99.90;;;;;;5014488;28;20234;-60
2024/02/27 11:36:27;;;;;;;12.67;8.60;;;13.40;99.90;;;;;;5017166;28;20228;-60
2024/02/27 11:38:55;;;;;;;9.03;7.83;;;13.90;99.90;;;;;;5013912;28;20227;-61
2024/02/27 11:41:25;;;;;;;9.20;8.07;;;14.30;99.90;;;;;;5018929;28;20209;-60
2024/02/27 11:43:56;;;;;;;10.37;8.30;;;14.70;99.90;;;;;;5020765;28;20544;-61
2024/02/27 11:46:36;;;;;;;9.10;8.17;;;14.90;99.90;;;;;;5021071;28;20215;-61
2024/02/27 11:49:05;;;;;;;11.07;8.43;;;15.20;99.90;;;;;;5018731;28;20277;-61
2024/02/27 11:51:36;;;;;;;10.30;8.47;;;15.40;99.90;;;;;;5022525;28;20682;-60
2024/02/27 11:54:08;;;;;;;9.70;8.00;;;15.80;99.90;;;;;;5014387;28;20578;-60
2024/02/27 11:56:41;;;;;;;12.13;8.93;;;15.90;99.90;;;;;;5016754;28;20551;-60
2024/02/27 11:59:15;;;;;;;8.87;7.93;;;15.90;99.90;;;;;;5021764;28;20201;-61
2024/02/27 12:01:43;;;;;;;9.10;7.07;;;15.40;99.90;;;;;;5025226;28;20216;-60
2024/02/27 12:04:13;;;;;;;8.70;7.53;;;15.60;99.90;;;;;;5023650;28;20214;-60
2024/02/27 12:06:50;;;;;;;8.70;7.90;;;15.90;99.90;;;;;;5025188;28;20244;-60
2024/02/27 12:09:25;;;;;;;10.77;8.00;;;15.70;99.90;;;;;;5016540;28;20228;-59
2024/02/27 12:11:55;;;;;;;9.17;7.60;;;15.60;99.90;;;;;;5019969;28;20226;-61
2024/02/27 12:14:24;;;;;;;8.90;7.07;;;15.70;99.90;;;;;;5022184;28;20735;-62
2024/02/27 12:16:52;;;;;;;8.10;7.07;;;15.80;99.90;;;;;;5022860;28;20281;-62
2024/02/27 12:19:21;;;;;;;9.93;7.83;;;15.90;99.90;;;;;;5020099;28;20223;-62
2024/02/27 12:21:49;;;;;;;8.93;7.30;;;15.90;99.90;;;;;;5015214;28;20561;-62
2024/02/27 12:24:20;;;;;;;8.50;7.63;;;16.10;99.90;;;;;;5018104;28;20314;-61
2024/02/27 12:26:49;;;;;;;15.10;7.57;;;15.90;99.90;;;;;;5023470;28;20236;-62
2024/02/27 12:29:19;;;;;;;8.67;7.47;;;16.30;99.90;;;;;;5018983;28;20217;-62
2024/02/27 12:31:48;;;;;;;7.70;6.90;;;15.80;99.90;;;;;;5007231;28;20218;-61
2024/02/27 12:34:17;;;;;;;7.67;6.90;;;16.00;99.90;;;;;;5003823;28;20248;-62
2024/02/27 12:36:46;;;;;;;7.23;6.47;;;16.10;99.90;;;;;;4998201;28;20285;-62
2024/02/27 12:39:15;;;;;;;7.57;6.80;;;15.70;99.90;;;;;;5000322;28;20237;-61
2024/02/27 12:41:43;;;;;;;8.70;6.87;;;15.50;99.90;;;;;;5000978;28;20229;-61
2024/02/27 12:44:11;;;;;;;10.70;7.00;;;15.70;99.90;;;;;;4995864;28;20191;-62
2024/02/27 12:46:41;;;;;;;8.10;7.10;;;15.70;99.90;;;;;;5002142;28;20229;-61
2024/02/27 12:49:09;;;;;;;7.43;6.73;;;15.80;99.90;;;;;;4996783;28;20313;-61